Time;durP1;ratioP1;P1;durP2;ratioP2;P2;SDS_P1;SDS_P2;PMS_P1;PMS_P2;Temp;Humidity;BMP_temperature;BMP_pressure;BME280_temperature;BME280_humidity;BME280_pressure;Samples;Min_cycle;Max_cycle;Signal;HPM_P1;HPM_P2
2022/07/27 00:00:45;;;;;;;6.77;2.93;;;15.30;99.90;;;;;;5076164;28;20564;-58
2022/07/27 00:03:12;;;;;;;6.03;2.50;;;15.30;99.90;;;;;;5077085;28;20806;-58
2022/07/27 00:05:43;;;;;;;5.63;2.80;;;15.30;99.90;;;;;;5076225;28;20540;-56
2022/07/27 00:08:14;;;;;;;6.33;2.80;;;15.30;99.90;;;;;;5076469;28;20523;-53
2022/07/27 00:10:45;;;;;;;5.43;2.43;;;15.30;99.90;;;;;;5076714;28;20488;-56
2022/07/27 00:13:13;;;;;;;4.47;2.30;;;15.30;99.90;;;;;;5076649;28;20898;-52
2022/07/27 00:15:41;;;;;;;4.23;2.80;;;15.30;99.90;;;;;;5075870;28;20515;-54
2022/07/27 00:18:08;;;;;;;4.80;2.63;;;15.30;99.90;;;;;;5076628;28;20534;-57
2022/07/27 00:20:35;;;;;;;7.10;2.27;;;15.30;99.90;;;;;;5076557;28;20556;-51
2022/07/27 00:23:03;;;;;;;4.47;2.20;;;15.20;99.90;;;;;;5076773;28;20932;-55
2022/07/27 00:25:31;;;;;;;2.83;1.93;;;15.20;99.90;;;;;;5076378;28;20433;-57
2022/07/27 00:27:59;;;;;;;4.97;2.90;;;15.20;99.90;;;;;;5076869;28;20436;-57
2022/07/27 00:30:29;;;;;;;3.90;2.33;;;15.10;99.90;;;;;;5076304;28;20562;-55
2022/07/27 00:32:59;;;;;;;8.00;3.20;;;15.10;99.90;;;;;;5076883;28;20485;-56
2022/07/27 00:35:26;;;;;;;4.00;2.70;;;15.10;99.90;;;;;;5076672;28;20457;-56
2022/07/27 00:37:53;;;;;;;3.93;2.43;;;15.20;99.90;;;;;;5076476;28;20949;-54
2022/07/27 00:40:21;;;;;;;6.17;3.23;;;15.10;99.90;;;;;;5076409;28;20475;-54
2022/07/27 00:42:50;;;;;;;5.40;2.13;;;15.00;99.90;;;;;;5076542;28;20573;-54
2022/07/27 00:45:19;;;;;;;4.37;3.17;;;15.00;99.90;;;;;;5076562;28;20440;-57
2022/07/27 00:47:48;;;;;;;3.63;2.57;;;15.00;99.90;;;;;;5076617;28;20461;-55
2022/07/27 00:50:15;;;;;;;4.07;2.67;;;15.00;99.90;;;;;;5079598;28;20545;-57
2022/07/27 00:52:43;;;;;;;4.60;2.90;;;15.00;99.90;;;;;;5079355;28;20546;-55
2022/07/27 00:55:12;;;;;;;5.30;3.13;;;15.00;99.90;;;;;;5079549;28;20564;-53
2022/07/27 00:57:42;;;;;;;6.07;2.90;;;14.90;99.90;;;;;;5079924;28;20489;-55
2022/07/27 01:00:12;;;;;;;4.80;2.50;;;14.90;99.90;;;;;;5079325;28;20929;-56
2022/07/27 01:02:39;;;;;;;3.40;2.40;;;14.80;99.90;;;;;;5078976;28;20558;-53
2022/07/27 01:05:07;;;;;;;5.50;2.73;;;14.80;99.90;;;;;;5079960;28;20566;-53
2022/07/27 01:07:35;;;;;;;3.07;2.23;;;14.70;99.90;;;;;;5079988;28;20456;-52
2022/07/27 01:10:02;;;;;;;4.90;2.33;;;14.60;99.90;;;;;;5078687;28;20461;-53
2022/07/27 01:12:34;;;;;;;5.13;2.20;;;14.70;99.90;;;;;;5079689;28;20552;-57
2022/07/27 01:15:05;;;;;;;8.57;2.80;;;14.70;99.90;;;;;;5079915;28;20468;-57
2022/07/27 01:17:34;;;;;;;3.83;2.20;;;14.70;99.90;;;;;;5079535;28;20555;-56
2022/07/27 01:20:01;;;;;;;5.63;3.40;;;14.60;99.90;;;;;;5079352;28;20466;-51
2022/07/27 01:22:30;;;;;;;3.50;2.17;;;14.60;99.90;;;;;;5079529;28;20492;-54
2022/07/27 01:24:59;;;;;;;6.07;2.57;;;14.60;99.90;;;;;;5079671;28;20496;-58
2022/07/27 01:27:26;;;;;;;2.33;1.90;;;14.50;99.90;;;;;;5079672;28;20921;-52
2022/07/27 01:29:54;;;;;;;3.90;2.30;;;14.40;99.90;;;;;;5079473;28;20464;-55
2022/07/27 01:32:21;;;;;;;5.93;2.93;;;14.30;99.90;;;;;;5079574;28;20504;-54
2022/07/27 01:34:48;;;;;;;2.93;2.33;;;14.30;99.90;;;;;;5079398;28;20950;-51
2022/07/27 01:37:17;;;;;;;4.97;2.60;;;14.30;99.90;;;;;;5079367;28;20564;-55
2022/07/27 01:39:46;;;;;;;3.90;2.40;;;14.30;99.90;;;;;;5079021;28;20852;-49
2022/07/27 01:42:15;;;;;;;4.00;2.87;;;14.30;99.90;;;;;;5079128;28;20490;-55
2022/07/27 01:44:45;;;;;;;4.00;2.33;;;14.30;99.90;;;;;;5078854;28;20475;-54
2022/07/27 01:47:12;;;;;;;3.77;2.93;;;14.30;99.90;;;;;;5079386;28;20461;-54
2022/07/27 01:49:42;;;;;;;4.20;3.10;;;14.30;99.90;;;;;;5078456;28;20462;-54
2022/07/27 01:52:09;;;;;;;6.73;3.20;;;14.30;99.90;;;;;;5078824;28;20482;-54
2022/07/27 01:54:37;;;;;;;9.60;2.60;;;14.20;99.90;;;;;;5078325;28;20462;-52
2022/07/27 01:57:09;;;;;;;3.93;2.53;;;14.10;99.90;;;;;;5078567;28;20876;-53
2022/07/27 01:59:36;;;;;;;4.60;2.20;;;14.10;99.90;;;;;;5078440;28;20984;-52
2022/07/27 02:02:03;;;;;;;4.23;2.57;;;14.00;99.90;;;;;;5078228;28;20493;-53
2022/07/27 02:04:31;;;;;;;6.97;2.30;;;14.00;99.90;;;;;;5078269;28;20530;-52
2022/07/27 02:06:59;;;;;;;5.80;2.60;;;13.90;99.90;;;;;;5078621;28;20508;-53
2022/07/27 02:09:28;;;;;;;3.40;2.90;;;13.90;99.90;;;;;;5078613;28;20774;-54
2022/07/27 02:14:43;;;;;;;3.43;2.10;;;13.90;99.90;;;;;;5078000;28;20431;-52
2022/07/27 02:17:12;;;;;;;7.60;2.60;;;13.90;99.90;;;;;;5078733;28;20439;-53
2022/07/27 02:19:40;;;;;;;5.63;2.90;;;13.90;99.90;;;;;;5079023;28;20461;-49
2022/07/27 02:22:07;;;;;;;5.10;2.93;;;13.90;99.90;;;;;;5078098;28;20467;-55
2022/07/27 02:24:36;;;;;;;4.97;2.10;;;13.90;99.90;;;;;;5078660;28;20497;-55
2022/07/27 02:27:04;;;;;;;3.60;2.10;;;13.90;99.90;;;;;;5077932;28;20473;-53
2022/07/27 02:29:32;;;;;;;3.83;2.10;;;13.90;99.90;;;;;;5077997;28;20496;-57
2022/07/27 02:32:01;;;;;;;5.70;3.10;;;13.90;99.90;;;;;;5077795;28;20442;-55
2022/07/27 02:34:28;;;;;;;5.53;2.70;;;13.90;99.90;;;;;;5078334;28;20461;-56
2022/07/27 02:36:56;;;;;;;4.13;2.50;;;13.90;99.90;;;;;;5078349;28;20465;-57
2022/07/27 02:39:23;;;;;;;4.30;2.53;;;13.90;99.90;;;;;;5078377;28;20522;-55
2022/07/27 02:41:50;;;;;;;3.10;2.80;;;13.90;99.90;;;;;;5077672;28;20513;-57
2022/07/27 02:44:19;;;;;;;5.03;2.33;;;13.80;99.90;;;;;;5077833;28;20491;-54
2022/07/27 02:46:49;;;;;;;4.43;2.90;;;13.70;99.90;;;;;;5077805;28;20771;-54
2022/07/27 02:49:18;;;;;;;5.20;2.50;;;13.70;99.90;;;;;;5077780;28;20501;-56
2022/07/27 02:51:51;;;;;;;7.20;2.73;;;13.60;99.90;;;;;;5077468;28;20926;-55
2022/07/27 02:54:19;;;;;;;5.83;2.60;;;13.60;99.90;;;;;;5077812;28;20713;-49
2022/07/27 02:56:46;;;;;;;4.87;2.57;;;13.50;99.90;;;;;;5077669;28;20519;-51
2022/07/27 02:59:16;;;;;;;4.53;2.43;;;13.50;99.90;;;;;;5077765;28;20461;-54
2022/07/27 03:01:44;;;;;;;4.23;2.70;;;13.40;99.90;;;;;;5076371;28;20515;-52
2022/07/27 03:04:11;;;;;;;2.80;2.33;;;13.30;99.90;;;;;;5077428;28;20439;-52
2022/07/27 03:06:42;;;;;;;4.50;2.60;;;13.30;1.00;;;;;;5077195;28;20457;-56
2022/07/27 03:09:10;;;;;;;4.33;2.40;;;13.30;1.00;;;;;;5077704;28;20576;-53
2022/07/27 03:11:41;;;;;;;5.40;2.90;;;13.30;1.00;;;;;;5076333;28;20440;-56
2022/07/27 03:14:08;;;;;;;8.70;2.77;;;13.30;1.00;;;;;;5077434;28;20436;-55
2022/07/27 03:16:35;;;;;;;3.73;2.60;;;13.20;99.90;;;;;;5077431;28;20458;-57
2022/07/27 03:19:04;;;;;;;3.47;2.33;;;13.20;1.00;;;;;;5077954;28;20890;-56
2022/07/27 03:21:31;;;;;;;5.20;2.43;;;13.10;1.00;;;;;;5077652;28;20447;-53
2022/07/27 03:24:00;;;;;;;9.83;2.70;;;13.10;1.00;;;;;;5077026;28;20457;-57
2022/07/27 03:26:29;;;;;;;5.03;3.10;;;13.00;1.00;;;;;;5077344;28;20482;-55
2022/07/27 03:28:57;;;;;;;6.27;2.50;;;13.00;1.00;;;;;;5077567;28;20752;-52
2022/07/27 03:31:24;;;;;;;5.93;2.40;;;13.00;1.00;;;;;;5077529;28;20461;-54
2022/07/27 03:33:51;;;;;;;5.37;3.00;;;12.90;1.00;;;;;;5077015;28;20496;-57
2022/07/27 03:36:18;;;;;;;5.53;3.20;;;12.90;1.00;;;;;;5077200;28;20834;-54
2022/07/27 03:38:46;;;;;;;5.20;2.70;;;12.80;1.00;;;;;;5077136;28;20792;-52
2022/07/27 03:41:22;;;;;;;4.43;2.60;;;12.80;1.00;;;;;;5077315;28;20572;-54
2022/07/27 03:43:49;;;;;;;5.07;2.90;;;12.80;1.00;;;;;;5077138;28;20499;-57
2022/07/27 03:46:16;;;;;;;5.37;2.93;;;12.70;1.00;;;;;;5076899;28;20499;-55
2022/07/27 03:48:44;;;;;;;6.33;3.00;;;12.60;1.00;;;;;;5077191;28;20915;-54
2022/07/27 03:51:11;;;;;;;9.80;2.97;;;12.60;1.00;;;;;;5077008;28;20435;-52
2022/07/27 03:53:39;;;;;;;3.90;2.50;;;12.60;1.00;;;;;;5074680;28;20550;-53
2022/07/27 03:56:06;;;;;;;7.60;3.07;;;12.60;1.00;;;;;;5077195;28;20485;-51
2022/07/27 03:58:35;;;;;;;5.03;3.47;;;12.60;1.00;;;;;;5076833;28;20521;-53
2022/07/27 04:01:03;;;;;;;3.43;3.00;;;12.50;1.00;;;;;;5075978;28;20535;-52
2022/07/27 04:03:30;;;;;;;6.23;3.30;;;12.50;1.00;;;;;;5075480;28;20485;-53
2022/07/27 04:05:57;;;;;;;10.87;3.40;;;12.50;1.00;;;;;;5076862;28;20446;-51
2022/07/27 04:08:32;;;;;;;5.40;3.50;;;12.50;1.00;;;;;;5076976;28;20558;-54
2022/07/27 04:11:05;;;;;;;5.50;2.90;;;12.60;1.00;;;;;;5077238;28;20439;-56
2022/07/27 04:13:34;;;;;;;3.90;2.30;;;12.50;1.00;;;;;;5076332;28;20940;-55
2022/07/27 04:16:04;;;;;;;3.67;2.90;;;12.50;1.00;;;;;;5076768;28;20440;-54
2022/07/27 04:18:31;;;;;;;4.53;2.97;;;12.50;1.00;;;;;;5077343;28;20464;-51
2022/07/27 04:21:02;;;;;;;4.20;3.20;;;12.40;1.00;;;;;;5076792;28;20915;-49
2022/07/27 04:23:30;;;;;;;7.30;3.10;;;12.30;1.00;;;;;;5078823;28;20558;-50
2022/07/27 04:25:59;;;;;;;4.47;3.40;;;12.30;1.00;;;;;;5080422;28;20465;-51
2022/07/27 04:28:28;;;;;;;5.97;3.10;;;12.40;1.00;;;;;;5080632;28;20900;-49
2022/07/27 04:30:59;;;;;;;3.10;2.80;;;12.40;1.00;;;;;;5081014;28;20442;-53
2022/07/27 04:33:27;;;;;;;4.90;2.50;;;12.60;1.00;;;;;;5081262;28;20812;-56
2022/07/27 04:35:55;;;;;;;5.83;2.83;;;12.60;1.00;;;;;;5079969;28;20483;-55
2022/07/27 04:38:22;;;;;;;5.87;3.50;;;12.70;1.00;;;;;;5079237;28;20440;-54
2022/07/27 04:40:49;;;;;;;5.63;2.80;;;12.70;1.00;;;;;;5078687;28;20440;-55
2022/07/27 04:43:16;;;;;;;5.00;3.10;;;12.70;1.00;;;;;;5080158;28;20541;-57
2022/07/27 04:45:44;;;;;;;8.20;3.53;;;12.70;1.00;;;;;;5080119;28;20534;-57
2022/07/27 04:48:13;;;;;;;5.40;2.73;;;12.70;1.00;;;;;;5078907;28;20448;-55
2022/07/27 04:50:41;;;;;;;9.83;4.90;;;12.70;1.00;;;;;;5078654;28;20461;-55
2022/07/27 04:53:09;;;;;;;4.87;2.77;;;12.80;1.00;;;;;;5079592;28;20579;-56
2022/07/27 04:55:37;;;;;;;7.77;3.70;;;12.80;1.00;;;;;;5079789;28;20834;-56
2022/07/27 04:58:04;;;;;;;5.57;3.43;;;12.90;1.00;;;;;;5079655;28;20530;-56
2022/07/27 05:00:34;;;;;;;9.53;3.63;;;12.90;1.00;;;;;;5078953;28;20534;-57
2022/07/27 05:03:01;;;;;;;8.23;3.30;;;12.90;1.00;;;;;;5077782;28;20508;-55
2022/07/27 05:05:32;;;;;;;5.33;3.13;;;12.90;1.00;;;;;;5079575;28;20839;-54
2022/07/27 05:08:00;;;;;;;4.10;3.63;;;12.90;1.00;;;;;;5078738;28;20748;-56
2022/07/27 05:10:27;;;;;;;5.53;3.03;;;12.90;1.00;;;;;;5079724;28;20744;-58
2022/07/27 05:12:54;;;;;;;5.70;3.40;;;13.00;1.00;;;;;;5079350;28;20440;-57
2022/07/27 05:15:23;;;;;;;5.23;3.70;;;13.00;1.00;;;;;;5079934;28;20453;-53
2022/07/27 05:17:51;;;;;;;7.90;3.37;;;13.10;1.00;;;;;;5079661;28;20556;-56
2022/07/27 05:20:18;;;;;;;3.53;3.13;;;13.10;1.00;;;;;;5078920;28;20436;-53
2022/07/27 05:22:50;;;;;;;4.60;3.27;;;13.30;1.00;;;;;;5079523;28;20598;-56
2022/07/27 05:25:17;;;;;;;7.07;3.70;;;13.40;1.00;;;;;;5079686;28;20736;-55
2022/07/27 05:27:47;;;;;;;6.97;3.60;;;13.40;1.00;;;;;;5079119;28;20898;-55
2022/07/27 05:30:15;;;;;;;4.70;3.63;;;13.40;1.00;;;;;;5079068;28;20563;-53
2022/07/27 05:32:42;;;;;;;7.27;4.10;;;13.50;1.00;;;;;;5078685;28;20557;-54
2022/07/27 05:35:10;;;;;;;7.50;4.10;;;13.60;1.00;;;;;;5078112;28;20435;-55
2022/07/27 05:37:37;;;;;;;5.77;4.17;;;13.70;1.00;;;;;;5079647;28;20468;-58
2022/07/27 05:40:09;;;;;;;5.27;3.80;;;13.70;1.00;;;;;;5078323;28;20814;-58
2022/07/27 05:42:36;;;;;;;26.37;7.93;;;13.80;1.00;;;;;;5079159;28;20439;-57
2022/07/27 05:45:06;;;;;;;7.33;5.10;;;13.90;1.00;;;;;;5078880;28;20471;-56
2022/07/27 05:47:34;;;;;;;5.30;3.60;;;13.90;1.00;;;;;;5079101;28;20866;-54
2022/07/27 05:50:03;;;;;;;7.90;4.50;;;14.00;1.00;;;;;;5078827;28;20741;-56
2022/07/27 05:52:33;;;;;;;4.00;2.97;;;14.10;1.00;;;;;;5077757;28;20470;-56
2022/07/27 05:55:00;;;;;;;5.13;2.93;;;14.30;1.00;;;;;;5077207;28;20439;-56
2022/07/27 05:57:39;;;;;;;7.53;3.27;;;14.50;1.00;;;;;;5078586;28;20440;-58
2022/07/27 06:00:10;;;;;;;4.00;3.20;;;14.70;1.00;;;;;;5077184;28;20457;-57
2022/07/27 06:02:37;;;;;;;4.83;3.27;;;14.70;99.90;;;;;;5077172;28;20457;-59
2022/07/27 06:05:05;;;;;;;4.43;2.90;;;15.00;99.90;;;;;;5077623;28;20560;-57
2022/07/27 06:10:17;;;;;;;3.70;3.27;;;15.50;99.90;;;;;;5078273;28;20509;-55
2022/07/27 06:12:46;;;;;;;4.67;2.60;;;15.70;99.90;;;;;;5078330;28;20734;-59
2022/07/27 06:15:15;;;;;;;7.07;2.60;;;16.00;99.90;;;;;;5078474;28;20475;-56
2022/07/27 06:17:45;;;;;;;5.10;2.90;;;15.80;99.90;;;;;;5078882;28;20440;-59
2022/07/27 06:20:16;;;;;;;7.37;2.93;;;16.00;99.90;;;;;;5078431;28;20469;-58
2022/07/27 06:22:48;;;;;;;3.90;2.87;;;16.20;99.90;;;;;;5077587;28;20560;-58
2022/07/27 06:25:16;;;;;;;5.07;2.40;;;16.80;99.90;;;;;;5077996;28;20469;-58
2022/07/27 06:27:45;;;;;;;4.17;2.40;;;17.10;99.90;;;;;;5077924;28;20564;-59
2022/07/27 06:30:18;;;;;;;4.57;2.53;;;16.60;99.90;;;;;;5078098;28;20462;-56
2022/07/27 06:32:54;;;;;;;5.67;2.87;;;16.60;99.90;;;;;;5077462;28;20538;-58
2022/07/27 06:35:22;;;;;;;4.03;2.57;;;16.40;99.90;;;;;;5078245;28;20465;-59
2022/07/27 06:37:51;;;;;;;4.00;2.30;;;17.00;99.90;;;;;;5089260;28;20446;-58
2022/07/27 06:40:22;;;;;;;7.30;2.13;;;17.50;99.90;;;;;;5097189;28;20525;-58
2022/07/27 06:42:50;;;;;;;3.60;2.60;;;17.80;99.90;;;;;;5098092;28;20456;-59
2022/07/27 06:45:17;;;;;;;3.47;2.23;;;17.80;99.90;;;;;;5097944;28;20517;-60
2022/07/27 06:47:45;;;;;;;4.10;2.63;;;18.10;99.90;;;;;;5096897;28;20468;-60
2022/07/27 06:50:15;;;;;;;3.93;2.00;;;17.70;99.90;;;;;;5097495;28;20460;-58
2022/07/27 06:52:42;;;;;;;4.33;2.40;;;17.00;99.90;;;;;;5096821;28;20574;-57
2022/07/27 06:55:12;;;;;;;3.70;2.53;;;17.10;99.90;;;;;;5097939;28;20439;-59
2022/07/27 06:57:41;;;;;;;4.30;2.63;;;17.60;99.90;;;;;;5096620;28;20467;-59
2022/07/27 07:00:12;;;;;;;6.10;2.40;;;17.30;99.90;;;;;;5096910;28;20484;-58
2022/07/27 07:02:50;;;;;;;5.33;3.30;;;16.90;99.90;;;;;;5097940;28;20857;-59
2022/07/27 07:05:17;;;;;;;2.90;2.37;;;16.90;99.90;;;;;;5097965;28;20444;-58
2022/07/27 07:07:48;;;;;;;3.93;2.73;;;16.90;99.90;;;;;;5096997;28;20446;-59
2022/07/27 07:10:18;;;;;;;5.17;2.30;;;17.10;99.90;;;;;;5097483;28;20545;-60
2022/07/27 07:12:48;;;;;;;5.10;2.73;;;16.90;99.90;;;;;;5097738;28;20959;-60
2022/07/27 07:15:16;;;;;;;10.97;3.90;;;17.10;99.90;;;;;;5097734;28;20830;-58
2022/07/27 07:17:44;;;;;;;8.00;3.30;;;16.60;99.90;;;;;;5097222;28;20435;-60
2022/07/27 07:20:15;;;;;;;3.80;2.80;;;16.60;99.90;;;;;;5098018;28;20886;-59
2022/07/27 07:22:44;;;;;;;5.00;2.93;;;16.40;99.90;;;;;;5097448;28;20439;-56
2022/07/27 07:25:11;;;;;;;4.90;2.90;;;16.90;99.90;;;;;;5076267;28;20483;-59
2022/07/27 07:27:41;;;;;;;4.53;2.97;;;17.50;99.90;;;;;;5076070;28;20958;-60
2022/07/27 07:30:09;;;;;;;5.77;2.60;;;17.50;99.90;;;;;;5077091;28;20465;-57
2022/07/27 07:32:37;;;;;;;4.20;3.00;;;17.80;99.90;;;;;;5075795;28;20549;-60
2022/07/27 07:35:11;;;;;;;3.83;2.60;;;18.00;99.90;;;;;;5077196;28;20498;-60
2022/07/27 07:37:39;;;;;;;2.97;2.23;;;18.40;99.90;;;;;;5077187;28;20809;-60
2022/07/27 07:40:09;;;;;;;4.70;1.97;;;19.30;99.90;;;;;;5077148;28;20555;-60
2022/07/27 07:42:54;;;;;;;4.47;2.13;;;20.20;99.90;;;;;;5077322;28;20755;-60
2022/07/27 07:45:22;;;;;;;3.83;2.30;;;21.20;99.90;;;;;;5077323;28;20431;-60
2022/07/27 07:47:52;;;;;;;4.30;2.30;;;21.70;99.90;;;;;;5077447;28;20683;-60
2022/07/27 07:50:19;;;;;;;3.13;2.17;;;22.20;99.90;;;;;;5077032;28;20457;-59
2022/07/27 07:52:48;;;;;;;5.30;1.80;;;22.40;99.90;;;;;;5076798;28;20837;-58
2022/07/27 07:55:19;;;;;;;5.53;2.20;;;22.20;99.90;;;;;;5076925;28;20924;-60
2022/07/27 07:57:50;;;;;;;5.10;2.33;;;22.10;99.90;;;;;;5077007;28;20444;-60
2022/07/27 08:00:20;;;;;;;3.73;2.00;;;22.20;99.90;;;;;;5080000;28;20913;-61
2022/07/27 08:02:49;;;;;;;3.27;1.80;;;22.10;99.90;;;;;;5080116;28;20500;-58
2022/07/27 08:05:19;;;;;;;5.73;2.60;;;22.10;99.90;;;;;;5080535;28;20548;-61
2022/07/27 08:07:49;;;;;;;4.37;1.93;;;22.20;99.90;;;;;;5079550;28;20560;-61
2022/07/27 08:10:20;;;;;;;5.27;2.60;;;22.60;99.90;;;;;;5080027;28;20465;-61
2022/07/27 08:12:53;;;;;;;2.87;1.93;;;22.30;99.90;;;;;;5079640;28;20465;-58
2022/07/27 08:15:21;;;;;;;2.97;2.40;;;21.50;99.90;;;;;;5079042;28;20453;-60
2022/07/27 08:17:51;;;;;;;3.80;2.47;;;22.30;99.90;;;;;;5079970;28;20465;-55
2022/07/27 08:20:21;;;;;;;3.10;2.30;;;20.70;99.90;;;;;;5078972;28;20465;-60
2022/07/27 08:22:48;;;;;;;5.10;2.30;;;19.40;99.90;;;;;;5080333;28;20465;-60
2022/07/27 08:25:15;;;;;;;3.27;2.60;;;18.70;99.90;;;;;;5079684;28;20580;-60
2022/07/27 08:27:43;;;;;;;3.90;2.10;;;18.40;99.90;;;;;;5079303;28;20894;-60
2022/07/27 08:30:11;;;;;;;3.30;2.43;;;18.40;99.90;;;;;;5078133;28;20479;-57
2022/07/27 08:32:52;;;;;;;4.27;2.57;;;18.20;99.90;;;;;;5080318;28;20497;-59
2022/07/27 08:35:22;;;;;;;6.33;2.43;;;18.20;99.90;;;;;;5067691;28;20445;-56
2022/07/27 08:37:52;;;;;;;2.30;2.10;;;18.30;99.90;;;;;;5059733;28;20535;-58
2022/07/27 08:40:24;;;;;;;4.70;2.90;;;18.20;99.90;;;;;;5060332;28;20535;-59
2022/07/27 08:42:54;;;;;;;4.70;2.77;;;18.40;99.90;;;;;;5063692;28;20487;-60
2022/07/27 08:45:23;;;;;;;3.87;2.30;;;19.50;99.90;;;;;;5078983;28;21039;-56
2022/07/27 08:47:52;;;;;;;3.53;1.90;;;20.00;99.90;;;;;;5080315;28;20743;-60
2022/07/27 08:50:26;;;;;;;3.47;2.03;;;21.40;99.90;;;;;;5080090;28;20435;-60
2022/07/27 08:52:58;;;;;;;4.33;2.40;;;21.00;99.90;;;;;;5079881;28;20799;-60
2022/07/27 08:55:39;;;;;;;4.17;2.43;;;21.80;99.90;;;;;;5079211;28;20461;-56
2022/07/27 08:58:08;;;;;;;3.90;1.47;;;21.00;99.90;;;;;;5079673;28;20559;-60
2022/07/27 09:00:39;;;;;;;35.17;5.60;;;19.40;99.90;;;;;;5078489;28;20496;-60
2022/07/27 09:03:10;;;;;;;3.40;1.90;;;19.90;99.90;;;;;;5077629;28;20505;-60
2022/07/27 09:05:46;;;;;;;3.87;2.10;;;20.60;99.90;;;;;;5057728;28;20494;-60
2022/07/27 09:08:22;;;;;;;4.30;2.10;;;20.80;99.90;;;;;;5059361;28;20512;-61
2022/07/27 09:10:50;;;;;;;5.00;1.90;;;21.60;99.90;;;;;;5061263;28;20473;-61
2022/07/27 09:13:24;;;;;;;4.13;2.17;;;22.90;99.90;;;;;;5079108;28;20448;-61
2022/07/27 09:15:57;;;;;;;2.10;1.73;;;23.40;99.90;;;;;;5077346;28;20556;-61
2022/07/27 09:18:32;;;;;;;2.30;1.57;;;24.30;99.90;;;;;;5078386;28;20469;-60
2022/07/27 09:21:16;;;;;;;3.20;1.77;;;23.40;99.90;;;;;;5077888;28;20457;-58
2022/07/27 09:23:45;;;;;;;3.50;1.77;;;23.00;99.90;;;;;;5076205;28;20449;-59
2022/07/27 09:26:14;;;;;;;2.60;1.70;;;22.90;99.90;;;;;;5071461;28;20540;-58
2022/07/27 09:28:45;;;;;;;2.47;2.27;;;22.30;99.90;;;;;;5079194;28;20497;-59
2022/07/27 09:31:17;;;;;;;2.50;1.90;;;21.00;99.90;;;;;;5078737;28;20467;-59
2022/07/27 09:33:48;;;;;;;6.93;2.20;;;19.90;99.90;;;;;;5078571;28;20436;-59
2022/07/27 09:36:22;;;;;;;2.83;1.90;;;19.30;99.90;;;;;;5079024;28;20880;-58
2022/07/27 09:39:05;;;;;;;2.93;2.27;;;19.90;99.90;;;;;;5078994;28;20465;-59
2022/07/27 09:41:41;;;;;;;3.83;2.50;;;19.60;99.90;;;;;;5078763;28;20461;-58
2022/07/27 09:44:08;;;;;;;2.60;2.13;;;19.20;99.90;;;;;;5078632;28;20524;-60
2022/07/27 09:46:40;;;;;;;3.03;1.70;;;19.10;99.90;;;;;;5078405;28;20432;-55
2022/07/27 09:49:26;;;;;;;4.70;2.00;;;19.70;99.90;;;;;;5078525;28;20460;-57
2022/07/27 09:52:01;;;;;;;4.63;2.50;;;20.20;99.90;;;;;;5080652;28;20485;-59
2022/07/27 09:54:44;;;;;;;2.70;1.60;;;20.60;99.90;;;;;;5078374;28;20431;-59
2022/07/27 09:57:12;;;;;;;5.40;2.20;;;20.10;99.90;;;;;;5078489;28;20465;-59
2022/07/27 09:59:42;;;;;;;2.23;1.90;;;19.60;99.90;;;;;;5077009;28;20750;-59
2022/07/27 10:02:16;;;;;;;2.37;1.97;;;20.00;99.90;;;;;;5077995;28;20814;-59
2022/07/27 10:04:49;;;;;;;1.80;1.53;;;21.00;99.90;;;;;;5078557;28;20852;-60
2022/07/27 10:07:20;;;;;;;2.70;2.10;;;21.80;99.90;;;;;;5078820;28;20468;-61
2022/07/27 10:09:50;;;;;;;1.83;1.70;;;22.70;99.90;;;;;;5078023;28;20501;-59
2022/07/27 10:12:20;;;;;;;2.00;1.80;;;22.30;99.90;;;;;;5078447;28;20515;-60
2022/07/27 10:14:50;;;;;;;3.47;2.30;;;21.80;99.90;;;;;;5078162;28;20917;-61
2022/07/27 10:17:17;;;;;;;2.83;1.83;;;23.00;99.90;;;;;;5078274;28;20558;-60
2022/07/27 10:19:49;;;;;;;2.00;1.60;;;23.80;99.90;;;;;;5076744;28;20468;-60
2022/07/27 10:22:51;;;;;;;2.67;2.20;;;24.00;99.90;;;;;;5077757;28;20491;-60
2022/07/27 10:25:23;;;;;;;3.43;1.83;;;25.30;99.90;;;;;;5076713;28;20493;-60
2022/07/27 10:28:16;;;;;;;2.83;2.17;;;24.50;99.90;;;;;;5077530;28;20477;-59
2022/07/27 10:30:48;;;;;;;2.23;1.87;;;21.90;99.90;;;;;;5078036;28;20480;-60
2022/07/27 10:33:16;;;;;;;4.40;2.30;;;20.90;99.90;;;;;;5077519;28;20461;-56
2022/07/27 10:35:44;;;;;;;3.90;2.40;;;19.50;99.90;;;;;;5077657;28;20431;-56
2022/07/27 10:38:17;;;;;;;2.43;2.23;;;18.90;99.90;;;;;;5077743;28;20461;-58
2022/07/27 10:40:47;;;;;;;2.47;1.83;;;18.70;99.90;;;;;;5075895;28;20473;-57
2022/07/27 10:43:21;;;;;;;4.67;2.43;;;18.70;99.90;;;;;;5077634;28;20465;-56
2022/07/27 10:45:52;;;;;;;3.27;2.20;;;18.90;99.90;;;;;;5077041;28;20493;-60
2022/07/27 10:48:42;;;;;;;5.63;2.57;;;19.40;99.90;;;;;;5077782;28;20467;-57
2022/07/27 10:51:10;;;;;;;8.20;3.20;;;19.60;99.90;;;;;;5077689;28;20555;-59
2022/07/27 10:53:40;;;;;;;5.00;2.87;;;19.60;99.90;;;;;;5077083;28;20493;-59
2022/07/27 10:56:11;;;;;;;3.80;2.53;;;19.40;99.90;;;;;;5077758;28;20467;-56
2022/07/27 10:58:54;;;;;;;2.73;2.40;;;19.50;99.90;;;;;;5077428;28;20436;-52
2022/07/27 11:01:26;;;;;;;4.30;2.50;;;20.00;99.90;;;;;;5076074;28;20784;-59
2022/07/27 11:04:11;;;;;;;2.40;2.20;;;20.40;99.90;;;;;;5076580;28;20556;-59
2022/07/27 11:06:41;;;;;;;5.97;2.63;;;20.90;99.90;;;;;;5077590;28;20432;-59
2022/07/27 11:09:09;;;;;;;2.53;1.93;;;21.20;99.90;;;;;;5077650;28;20471;-59
2022/07/27 11:11:40;;;;;;;4.47;2.87;;;21.60;99.90;;;;;;5076942;28;20436;-59
2022/07/27 11:14:10;;;;;;;2.97;2.57;;;21.70;99.90;;;;;;5077529;28;20443;-55
2022/07/27 11:16:37;;;;;;;4.23;2.50;;;21.80;99.90;;;;;;5077468;28;20461;-58
2022/07/27 11:19:07;;;;;;;5.20;2.37;;;21.00;99.90;;;;;;5077665;28;20467;-57
2022/07/27 11:21:37;;;;;;;3.40;2.43;;;21.30;99.90;;;;;;5077005;28;20555;-57
2022/07/27 11:24:16;;;;;;;2.57;2.37;;;22.20;99.90;;;;;;5077038;28;20465;-54
2022/07/27 11:26:48;;;;;;;2.53;2.23;;;23.20;99.90;;;;;;5076773;28;20906;-56
2022/07/27 11:29:22;;;;;;;3.60;2.20;;;22.80;99.90;;;;;;5077373;28;20472;-58
2022/07/27 11:31:56;;;;;;;3.70;2.60;;;24.20;99.90;;;;;;5076632;28;20939;-56
2022/07/27 11:34:31;;;;;;;3.10;2.23;;;23.50;99.90;;;;;;5077442;28;20959;-59
2022/07/27 11:37:01;;;;;;;2.50;2.20;;;23.90;99.90;;;;;;5077344;28;20471;-57
2022/07/27 11:39:34;;;;;;;2.80;2.53;;;25.10;99.90;;;;;;5077283;28;20479;-58
2022/07/27 11:42:04;;;;;;;2.40;2.00;;;24.30;99.90;;;;;;5076867;28;20465;-57
2022/07/27 11:44:45;;;;;;;3.30;2.13;;;24.10;99.90;;;;;;5076734;28;20493;-59
2022/07/27 11:47:17;;;;;;;3.67;2.30;;;23.40;99.90;;;;;;5077314;28;20464;-58
2022/07/27 11:49:50;;;;;;;3.40;2.37;;;21.40;99.90;;;;;;5077047;28;20547;-57
2022/07/27 11:52:18;;;;;;;3.60;2.60;;;20.70;99.90;;;;;;5076358;28;20464;-59
2022/07/27 11:54:52;;;;;;;4.73;2.70;;;21.00;99.90;;;;;;5077280;28;20485;-59
2022/07/27 11:57:31;;;;;;;3.67;2.73;;;21.50;99.90;;;;;;5076046;28;20922;-54
2022/07/27 11:59:59;;;;;;;3.43;2.60;;;20.90;99.90;;;;;;5084279;28;20521;-59
2022/07/27 12:02:32;;;;;;;3.23;2.07;;;21.30;99.90;;;;;;5087653;28;20492;-61
2022/07/27 12:05:01;;;;;;;2.40;2.20;;;22.50;99.90;;;;;;5079376;28;20481;-52
2022/07/27 12:07:32;;;;;;;2.83;2.20;;;22.10;99.90;;;;;;5076545;28;20472;-58
2022/07/27 12:10:06;;;;;;;3.43;2.63;;;21.50;99.90;;;;;;5072328;28;20427;-55
2022/07/27 12:12:35;;;;;;;3.60;2.20;;;22.20;99.90;;;;;;5073736;28;20456;-57
2022/07/27 12:15:03;;;;;;;2.43;2.23;;;23.50;99.90;;;;;;5073965;28;20450;-58
2022/07/27 12:17:35;;;;;;;3.13;2.50;;;22.20;99.90;;;;;;5074548;28;20544;-59
2022/07/27 12:20:05;;;;;;;2.73;2.17;;;22.00;99.90;;;;;;5074918;28;20458;-59
2022/07/27 12:22:47;;;;;;;3.87;2.53;;;22.20;99.90;;;;;;5075227;28;20449;-58
2022/07/27 12:25:28;;;;;;;5.43;3.57;;;23.00;99.90;;;;;;5075037;28;20945;-60
2022/07/27 12:27:57;;;;;;;3.03;2.50;;;24.80;99.90;;;;;;5072172;28;20425;-59
2022/07/27 12:30:36;;;;;;;3.57;2.30;;;25.70;99.90;;;;;;5074752;28;21107;-56
2022/07/27 12:33:07;;;;;;;16.50;6.20;;;24.30;99.90;;;;;;5073671;28;20457;-59
2022/07/27 12:35:45;;;;;;;3.97;2.37;;;24.00;99.90;;;;;;5073296;28;20777;-57
2022/07/27 12:38:15;;;;;;;6.17;3.87;;;21.80;99.90;;;;;;5073586;28;20468;-53
2022/07/27 12:40:48;;;;;;;3.57;2.00;;;21.10;99.90;;;;;;5075307;28;20454;-58
2022/07/27 12:43:20;;;;;;;3.10;1.70;;;20.60;99.90;;;;;;5075499;28;20874;-55
2022/07/27 12:45:49;;;;;;;3.57;2.33;;;20.70;99.90;;;;;;5078810;28;20492;-57
2022/07/27 12:48:19;;;;;;;2.30;2.10;;;20.30;99.90;;;;;;5078915;28;20471;-57
2022/07/27 12:50:58;;;;;;;2.60;2.20;;;20.20;99.90;;;;;;5079980;28;20822;-52
2022/07/27 12:53:26;;;;;;;5.43;2.67;;;20.60;99.90;;;;;;5077999;28;20489;-53
2022/07/27 12:56:02;;;;;;;4.10;2.50;;;20.20;99.90;;;;;;5079457;28;20554;-57
2022/07/27 12:58:32;;;;;;;2.20;2.00;;;20.20;99.90;;;;;;5079266;28;20443;-55
2022/07/27 13:01:03;;;;;;;2.80;2.40;;;20.20;99.90;;;;;;5079098;28;20548;-55
2022/07/27 13:03:35;;;;;;;4.10;2.90;;;19.70;99.90;;;;;;5078219;28;20469;-56
2022/07/27 13:06:02;;;;;;;3.80;2.30;;;19.80;99.90;;;;;;5077293;28;20567;-56
2022/07/27 13:08:31;;;;;;;2.83;2.30;;;20.40;99.90;;;;;;5079794;28;20495;-51